createdAt,value
2022-10-28T00:00:38.202Z,92.22
2022-10-28T00:01:41.483Z,92.21
2022-10-28T00:02:43.994Z,92.44
2022-10-28T00:03:52.094Z,92.05
2022-10-28T00:04:55.516Z,91.84
2022-10-28T00:06:07.100Z,91.68
2022-10-28T00:07:10.929Z,91.84
2022-10-28T00:08:16.453Z,91.89
2022-10-28T00:09:19.286Z,92.25
2022-10-28T00:10:24.331Z,92.57
2022-10-28T00:11:29.754Z,92.06
2022-10-28T00:12:36.993Z,91.75
2022-10-28T00:13:39.897Z,91.56
2022-10-28T00:14:43.402Z,91.57
2022-10-28T00:15:46.582Z,91.83
2022-10-28T00:16:49.929Z,91.55
2022-10-28T00:17:58.114Z,91.30
2022-10-28T00:19:01.067Z,91.07
2022-10-28T00:20:04.826Z,91.06
2022-10-28T00:21:10.994Z,91.27
2022-10-28T00:22:14.089Z,90.97
2022-10-28T00:23:17.499Z,90.95
2022-10-28T00:24:20.681Z,91.21
2022-10-28T00:25:25.661Z,91.50
2022-10-28T00:26:32.065Z,92.12
2022-10-28T00:27:37.715Z,91.90
2022-10-28T00:28:48.422Z,91.50
2022-10-28T00:29:54.740Z,91.45
2022-10-28T00:30:58.839Z,91.27
2022-10-28T00:32:03.332Z,90.93
2022-10-28T00:33:07.014Z,90.63
2022-10-28T00:34:11.451Z,90.96
2022-10-28T00:35:14.948Z,90.97
2022-10-28T00:36:26.463Z,91.21
2022-10-28T00:37:29.651Z,91.52
2022-10-28T00:38:33.804Z,91.16
2022-10-28T00:39:37.429Z,90.95
2022-10-28T00:40:40.516Z,91.11
2022-10-28T00:41:45.588Z,90.95
2022-10-28T00:42:48.267Z,91.52
2022-10-28T00:43:53.861Z,91.45
2022-10-28T00:44:58.196Z,91.62
2022-10-28T00:46:01.946Z,91.72
2022-10-28T00:47:06.768Z,91.63
2022-10-28T00:48:10.179Z,91.96
2022-10-28T00:49:22.772Z,92.25
2022-10-28T00:50:43.303Z,92.41
2022-10-28T00:51:48.477Z,92.29
2022-10-28T00:52:55.218Z,92.56
2022-10-28T00:53:59.030Z,91.98
2022-10-28T00:55:03.615Z,91.73
2022-10-28T00:56:10.039Z,91.55
2022-10-28T00:57:16.342Z,91.80
2022-10-28T00:58:20.358Z,92.07
2022-10-28T00:59:26.172Z,91.86
2022-10-28T01:00:29.781Z,91.99
2022-10-28T01:01:32.426Z,92.26
2022-10-28T01:02:39.024Z,91.90
2022-10-28T01:03:42.558Z,91.82
2022-10-28T01:04:47.039Z,91.74
2022-10-28T01:05:53.231Z,91.51
2022-10-28T01:07:00.887Z,91.58
2022-10-28T01:08:04.818Z,91.46
2022-10-28T01:09:07.837Z,91.67
2022-10-28T01:10:10.716Z,91.47
2022-10-28T01:11:18.924Z,91.66
2022-10-28T01:12:27.066Z,91.71
2022-10-28T01:13:50.068Z,91.87
2022-10-28T01:15:14.508Z,91.87
2022-10-28T01:16:21.524Z,91.71
2022-10-28T01:17:29.281Z,91.78
2022-10-28T01:18:46.810Z,91.91
2022-10-28T01:20:08.488Z,91.90
2022-10-28T01:21:16.589Z,91.94
2022-10-28T01:22:29.221Z,91.85
2022-10-28T01:23:47.542Z,91.73
2022-10-28T01:24:55.722Z,91.82
2022-10-28T01:26:08.408Z,91.70
2022-10-28T01:27:22.787Z,91.96
2022-10-28T01:28:31.410Z,92.31
2022-10-28T01:29:56.310Z,92.56
2022-10-28T01:31:15.233Z,92.72
2022-10-28T01:32:20.352Z,92.35
2022-10-28T01:33:27.313Z,92.08
2022-10-28T01:34:37.608Z,92.23
2022-10-28T01:35:46.232Z,92.19
2022-10-28T01:36:51.396Z,92.22
2022-10-28T01:38:05.346Z,92.04
2022-10-28T01:39:14.491Z,91.95
2022-10-28T01:40:26.049Z,92.19
2022-10-28T01:41:30.170Z,91.90
2022-10-28T01:42:34.550Z,91.77
2022-10-28T01:43:44.480Z,91.74
2022-10-28T01:44:52.811Z,91.74
2022-10-28T01:46:01.018Z,91.44
2022-10-28T01:47:15.029Z,91.65
2022-10-28T01:48:22.871Z,91.61
2022-10-28T01:49:27.409Z,91.36
2022-10-28T01:50:48.869Z,91.54
2022-10-28T01:51:54.263Z,91.32
2022-10-28T01:52:58.813Z,91.22
2022-10-28T01:54:04.203Z,91.29
2022-10-28T01:55:12.260Z,91.31
2022-10-28T01:56:17.683Z,91.44
2022-10-28T01:57:21.804Z,91.69
2022-10-28T01:58:27.097Z,91.35
2022-10-28T01:59:31.545Z,91.32
2022-10-28T02:00:35.565Z,91.30
2022-10-28T02:01:39.136Z,91.45
2022-10-28T02:02:45.978Z,91.60
2022-10-28T02:03:48.903Z,91.52
2022-10-28T02:04:52.022Z,91.64
2022-10-28T02:06:00.693Z,91.72
2022-10-28T02:07:05.151Z,91.58
2022-10-28T02:08:22.876Z,91.99
2022-10-28T02:09:34.736Z,91.78
2022-10-28T02:10:40.222Z,92.03
2022-10-28T02:12:01.401Z,92.33
2022-10-28T02:13:06.660Z,92.07
2022-10-28T02:14:15.179Z,91.91
2022-10-28T02:15:19.312Z,91.50
2022-10-28T02:16:27.725Z,91.40
2022-10-28T02:17:42.812Z,91.61
2022-10-28T02:18:49.437Z,91.22
2022-10-28T02:19:54.602Z,91.33
2022-10-28T02:21:03.481Z,91.60
2022-10-28T02:22:08.855Z,91.40
2022-10-28T02:23:13.424Z,91.35
2022-10-28T02:24:37.172Z,91.63
2022-10-28T02:25:45.377Z,91.49
2022-10-28T02:26:50.542Z,91.34
2022-10-28T02:28:01.936Z,91.20
2022-10-28T02:29:22.838Z,91.40
2022-10-28T02:30:32.809Z,91.52
2022-10-28T02:31:38.058Z,91.96
2022-10-28T02:32:43.168Z,92.00
2022-10-28T02:33:48.338Z,91.82
2022-10-28T02:34:53.524Z,91.93
2022-10-28T02:35:57.970Z,91.80
2022-10-28T02:37:03.030Z,92.00
2022-10-28T02:38:09.058Z,91.54
2022-10-28T02:39:12.339Z,91.70
2022-10-28T02:40:19.335Z,91.48
2022-10-28T02:41:25.732Z,91.36
2022-10-28T02:42:33.623Z,91.40
2022-10-28T02:43:39.007Z,91.25
2022-10-28T02:44:44.054Z,91.47
2022-10-28T02:45:49.467Z,91.09
2022-10-28T02:46:55.678Z,91.71
2022-10-28T02:48:02.000Z,91.64
2022-10-28T02:49:07.950Z,91.47
2022-10-28T02:50:13.302Z,91.53
2022-10-28T02:51:23.179Z,91.31
2022-10-28T02:52:27.614Z,91.24
2022-10-28T02:53:34.982Z,91.12
2022-10-28T02:54:40.377Z,91.30
2022-10-28T02:55:44.949Z,91.20
2022-10-28T02:56:54.805Z,91.24
2022-10-28T02:57:59.581Z,90.95
2022-10-28T02:59:01.919Z,91.07
2022-10-28T03:00:09.088Z,91.20
2022-10-28T03:01:12.699Z,91.42
2022-10-28T03:02:16.971Z,91.24
2022-10-28T03:03:21.507Z,91.53
2022-10-28T03:04:23.937Z,91.26
2022-10-28T03:05:27.231Z,91.18
2022-10-28T03:06:30.634Z,91.14
2022-10-28T03:07:34.136Z,91.27
2022-10-28T03:08:37.212Z,91.20
2022-10-28T03:09:39.994Z,91.20
2022-10-28T03:10:43.076Z,91.10
2022-10-28T03:11:46.265Z,91.31
2022-10-28T03:12:49.676Z,91.32
2022-10-28T03:13:54.022Z,91.15
2022-10-28T03:14:57.302Z,91.26
2022-10-28T03:15:59.555Z,91.38
2022-10-28T03:17:02.442Z,91.54
2022-10-28T03:18:05.742Z,91.31
2022-10-28T03:20:12.958Z,91.29
2022-10-28T03:21:17.912Z,91.53
2022-10-28T03:22:22.046Z,91.77
2022-10-28T03:23:27.153Z,92.12
2022-10-28T03:24:30.414Z,91.87
2022-10-28T03:25:35.704Z,91.54
2022-10-28T03:26:38.060Z,91.81
2022-10-28T03:27:42.552Z,91.95
2022-10-28T03:28:46.011Z,91.74
2022-10-28T03:29:48.889Z,91.87
2022-10-28T03:30:52.490Z,92.02
2022-10-28T03:31:55.679Z,92.04
2022-10-28T03:32:58.459Z,92.81
2022-10-28T03:34:02.375Z,92.44
2022-10-28T03:35:05.254Z,92.42
2022-10-28T03:36:09.187Z,92.30
2022-10-28T03:37:12.338Z,92.44
2022-10-28T03:38:15.780Z,92.17
2022-10-28T03:39:18.343Z,92.40
2022-10-28T03:40:21.525Z,92.98
2022-10-28T03:41:27.682Z,92.60
2022-10-28T03:42:31.156Z,92.45
2022-10-28T03:43:34.558Z,92.40
2022-10-28T03:44:37.737Z,93.31
2022-10-28T03:45:40.898Z,93.23
2022-10-28T03:46:43.181Z,92.96
2022-10-28T03:47:46.376Z,92.59
2022-10-28T03:48:48.563Z,92.75
2022-10-28T03:49:52.091Z,92.60
2022-10-28T03:50:56.166Z,92.87
2022-10-28T03:52:01.448Z,92.49
2022-10-28T03:53:04.326Z,92.20
2022-10-28T03:54:08.562Z,92.31
2022-10-28T03:55:12.833Z,92.41
2022-10-28T03:56:18.005Z,92.42
2022-10-28T03:57:26.295Z,92.62
2022-10-28T03:58:30.045Z,92.58
2022-10-28T03:59:33.294Z,93.05
2022-10-28T04:00:36.802Z,92.79
2022-10-28T04:01:39.313Z,93.01
2022-10-28T04:02:43.287Z,93.30
2022-10-28T04:03:46.050Z,93.33
2022-10-28T04:04:49.419Z,93.26
2022-10-28T04:05:53.164Z,93.18
2022-10-28T04:06:57.610Z,93.33
2022-10-28T04:08:01.323Z,93.25
2022-10-28T04:09:05.673Z,93.33
2022-10-28T04:10:09.701Z,93.40
2022-10-28T04:11:12.987Z,93.27
2022-10-28T04:12:15.467Z,93.30
2022-10-28T04:13:20.624Z,93.56
2022-10-28T04:14:23.094Z,93.48
2022-10-28T04:15:26.381Z,93.50
2022-10-28T04:16:29.441Z,92.98
2022-10-28T04:17:34.759Z,92.93
2022-10-28T04:18:39.765Z,93.37
2022-10-28T04:19:43.126Z,93.10
2022-10-28T04:20:51.123Z,92.82
2022-10-28T04:21:54.616Z,92.71
2022-10-28T04:22:58.667Z,93.16
2022-10-28T04:24:09.164Z,93.08
2022-10-28T04:25:12.534Z,92.71
2022-10-28T04:26:17.004Z,93.35
2022-10-28T04:27:20.404Z,93.60
2022-10-28T04:28:26.702Z,93.39
2022-10-28T04:29:29.607Z,93.22
2022-10-28T04:30:35.816Z,93.45
2022-10-28T04:31:40.008Z,93.59
2022-10-28T04:32:42.932Z,93.30
2022-10-28T04:33:46.240Z,93.40
2022-10-28T04:34:50.056Z,93.39
2022-10-28T04:35:53.386Z,93.70
2022-10-28T04:36:56.638Z,93.37
2022-10-28T04:38:00.811Z,93.22
2022-10-28T04:39:04.598Z,93.18
2022-10-28T04:40:09.925Z,93.50
2022-10-28T04:41:14.326Z,93.33
2022-10-28T04:42:16.681Z,94.14
2022-10-28T04:43:20.080Z,93.58
2022-10-28T04:44:25.570Z,93.72
2022-10-28T04:45:28.756Z,93.43
2022-10-28T04:46:32.257Z,93.48
2022-10-28T04:47:36.711Z,93.76
2022-10-28T04:48:42.368Z,93.59
2022-10-28T04:49:46.958Z,93.55
2022-10-28T04:50:50.259Z,93.86
2022-10-28T04:51:52.612Z,93.67
2022-10-28T04:52:56.213Z,94.15
2022-10-28T04:54:00.725Z,94.07
2022-10-28T04:55:05.620Z,93.75
2022-10-28T04:56:09.592Z,93.95
2022-10-28T04:57:13.049Z,93.22
2022-10-28T04:58:16.446Z,93.46
2022-10-28T04:59:18.810Z,94.40
2022-10-28T05:00:22.531Z,93.44
2022-10-28T05:01:26.287Z,93.17
2022-10-28T05:02:29.781Z,93.15
2022-10-28T05:03:34.915Z,92.78
2022-10-28T05:04:38.431Z,92.74
2022-10-28T05:05:44.746Z,92.64
2022-10-28T05:06:48.930Z,92.40
2022-10-28T05:07:52.593Z,92.36
2022-10-28T05:08:57.464Z,92.14
2022-10-28T05:10:04.101Z,92.32
2022-10-28T05:11:07.504Z,92.39
2022-10-28T05:12:11.844Z,92.33
2022-10-28T05:13:17.640Z,92.54
2022-10-28T05:14:20.827Z,92.35
2022-10-28T05:15:27.163Z,93.05
2022-10-28T05:16:30.552Z,93.33
2022-10-28T05:17:35.113Z,93.13
2022-10-28T05:18:38.553Z,92.83
2022-10-28T05:19:44.096Z,93.36
2022-10-28T05:20:47.507Z,93.69
2022-10-28T05:21:50.804Z,93.50
2022-10-28T05:22:56.780Z,93.32
2022-10-28T05:24:05.073Z,93.49
2022-10-28T05:25:08.829Z,93.36
2022-10-28T05:26:12.266Z,93.13
2022-10-28T05:27:17.311Z,92.81
2022-10-28T05:28:21.852Z,93.21
2022-10-28T05:29:29.704Z,92.71
2022-10-28T05:30:32.135Z,93.51
2022-10-28T05:31:35.508Z,93.16
2022-10-28T05:32:38.390Z,93.39
2022-10-28T05:33:42.727Z,93.24
2022-10-28T05:34:46.056Z,93.56
2022-10-28T05:35:49.529Z,93.36
2022-10-28T05:36:54.078Z,93.04
2022-10-28T05:37:57.783Z,92.63
2022-10-28T05:39:01.296Z,92.93
2022-10-28T05:40:06.684Z,93.54
2022-10-28T05:41:10.280Z,93.86
2022-10-28T05:42:14.214Z,93.71
2022-10-28T05:43:17.747Z,93.44
2022-10-28T05:44:20.911Z,92.97
2022-10-28T05:45:24.240Z,92.95
2022-10-28T05:46:27.543Z,93.50
2022-10-28T05:47:30.898Z,92.98
2022-10-28T05:48:34.458Z,92.93
2022-10-28T05:49:38.634Z,93.40
2022-10-28T05:50:42.242Z,93.74
2022-10-28T05:51:45.550Z,93.58
2022-10-28T05:52:50.100Z,93.86
2022-10-28T05:53:54.545Z,93.67
2022-10-28T05:54:56.796Z,93.30
2022-10-28T05:56:00.186Z,93.38
2022-10-28T05:57:03.703Z,93.96
2022-10-28T05:58:07.301Z,93.58
2022-10-28T05:59:10.504Z,93.51
2022-10-28T06:00:14.112Z,93.65
2022-10-28T06:01:17.975Z,93.82
2022-10-28T06:02:22.252Z,93.24
2022-10-28T06:03:30.104Z,93.30
2022-10-28T06:04:31.998Z,92.74
2022-10-28T06:05:37.161Z,92.43
2022-10-28T06:06:40.467Z,92.17
2022-10-28T06:07:43.869Z,93.20
2022-10-28T06:08:46.109Z,92.66
2022-10-28T06:09:52.446Z,92.30
2022-10-28T06:10:55.877Z,91.87
2022-10-28T06:11:59.800Z,91.70
2022-10-28T06:13:03.399Z,92.17
2022-10-28T06:14:08.473Z,91.76
2022-10-28T06:15:11.833Z,91.65
2022-10-28T06:16:17.102Z,91.33
2022-10-28T06:17:21.498Z,91.09
2022-10-28T06:18:26.099Z,91.05
2022-10-28T06:19:29.290Z,92.28
2022-10-28T06:20:32.850Z,92.13
2022-10-28T06:21:40.451Z,91.54
2022-10-28T06:22:50.416Z,91.29
2022-10-28T06:23:53.302Z,90.88
2022-10-28T06:24:57.004Z,90.98
2022-10-28T06:26:01.392Z,90.46
2022-10-28T06:27:04.839Z,90.28
2022-10-28T06:28:10.492Z,90.56
2022-10-28T06:29:13.747Z,90.37
2022-10-28T06:30:18.817Z,90.36
2022-10-28T06:31:22.334Z,90.36
2022-10-28T06:32:26.561Z,90.06
2022-10-28T06:33:33.127Z,89.66
2022-10-28T06:34:38.167Z,89.66
2022-10-28T06:35:41.769Z,89.84
2022-10-28T06:36:44.450Z,90.03
2022-10-28T06:37:48.069Z,90.72
2022-10-28T06:38:52.548Z,90.72
2022-10-28T06:39:56.860Z,90.54
2022-10-28T06:40:59.736Z,90.08
2022-10-28T06:42:03.141Z,89.65
2022-10-28T06:43:11.547Z,89.54
2022-10-28T06:44:16.092Z,89.11
2022-10-28T06:45:19.388Z,89.30
2022-10-28T06:46:22.800Z,88.80
2022-10-28T06:47:27.496Z,88.47
2022-10-28T06:48:30.282Z,88.76
2022-10-28T06:49:33.578Z,88.99
2022-10-28T06:50:36.248Z,88.81
2022-10-28T06:51:41.666Z,88.81
2022-10-28T06:52:48.180Z,88.43
2022-10-28T06:53:52.186Z,87.90
2022-10-28T06:54:55.807Z,87.91
2022-10-28T06:56:02.730Z,88.56
2022-10-28T06:57:06.465Z,88.49
2022-10-28T06:58:09.462Z,88.19
2022-10-28T06:59:13.044Z,88.52
2022-10-28T07:00:18.300Z,88.48
2022-10-28T07:01:22.597Z,88.48
2022-10-28T07:02:26.052Z,88.54
2022-10-28T07:03:28.439Z,88.17
2022-10-28T07:04:31.852Z,88.76
2022-10-28T07:05:36.396Z,88.08
2022-10-28T07:06:40.418Z,87.82
2022-10-28T07:07:43.613Z,88.46
2022-10-28T07:08:47.049Z,87.79
2022-10-28T07:09:50.412Z,87.24
2022-10-28T07:10:54.755Z,86.81
2022-10-28T07:12:02.263Z,86.84
2022-10-28T07:13:05.037Z,86.77
2022-10-28T07:14:09.345Z,87.12
2022-10-28T07:15:13.625Z,87.09
2022-10-28T07:16:18.248Z,86.86
2022-10-28T07:17:21.649Z,87.04
2022-10-28T07:18:25.563Z,87.14
2022-10-28T07:19:29.798Z,86.42
2022-10-28T07:20:33.532Z,86.15
2022-10-28T07:21:37.332Z,85.74
2022-10-28T07:22:40.777Z,85.43
2022-10-28T07:23:44.027Z,84.81
2022-10-28T07:24:48.894Z,84.20
2022-10-28T07:27:00.605Z,83.95
2022-10-28T07:28:05.083Z,83.89
2022-10-28T07:30:13.431Z,82.29
2022-10-28T07:31:17.356Z,81.53
2022-10-28T07:32:22.991Z,81.15
2022-10-28T07:33:25.827Z,81.04
2022-10-28T07:34:28.707Z,80.77
2022-10-28T07:35:32.141Z,80.82
2022-10-28T07:36:34.569Z,81.60
2022-10-28T07:37:39.451Z,81.33
2022-10-28T07:38:42.701Z,81.42
2022-10-28T07:39:46.013Z,81.32
2022-10-28T07:40:51.636Z,81.46
2022-10-28T07:41:54.903Z,81.99
2022-10-28T07:42:59.285Z,81.51
2022-10-28T07:44:02.654Z,82.93
2022-10-28T07:45:05.573Z,82.44
2022-10-28T07:46:09.977Z,81.97
2022-10-28T07:47:13.901Z,80.99
2022-10-28T07:48:19.078Z,81.54
2022-10-28T07:49:23.000Z,80.09
2022-10-28T07:50:26.503Z,79.30
2022-10-28T07:51:30.633Z,78.19
2022-10-28T07:52:35.287Z,77.30
2022-10-28T07:53:37.760Z,77.46
2022-10-28T07:54:42.703Z,75.90
2022-10-28T07:55:46.115Z,76.27
2022-10-28T07:56:49.725Z,75.21
2022-10-28T07:57:56.641Z,75.13
2022-10-28T07:59:00.897Z,75.01
2022-10-28T08:00:06.186Z,73.62
2022-10-28T08:01:17.510Z,72.62
2022-10-28T08:02:21.551Z,72.73
2022-10-28T08:03:34.595Z,73.24
2022-10-28T08:04:32.214Z,72.48
2022-10-28T08:05:34.466Z,72.33
2022-10-28T08:06:38.677Z,72.39
2022-10-28T08:07:42.235Z,72.98
2022-10-28T08:08:46.570Z,73.40
2022-10-28T08:09:50.029Z,73.44
2022-10-28T08:10:56.364Z,73.28
2022-10-28T08:12:02.497Z,72.86
2022-10-28T08:13:07.691Z,72.74
2022-10-28T08:14:11.361Z,73.15
2022-10-28T08:15:15.705Z,73.19
2022-10-28T08:16:19.340Z,73.44
2022-10-28T08:17:23.009Z,74.03
2022-10-28T08:18:25.184Z,74.07
2022-10-28T08:19:27.513Z,73.18
2022-10-28T08:20:29.778Z,73.34
2022-10-28T08:21:33.276Z,72.72
2022-10-28T08:22:36.606Z,72.83
2022-10-28T08:23:40.391Z,73.09
2022-10-28T08:24:45.224Z,72.32
2022-10-28T08:25:51.557Z,72.20
2022-10-28T08:26:54.977Z,71.51
2022-10-28T08:27:58.377Z,72.01
2022-10-28T08:29:03.658Z,70.51
2022-10-28T08:30:07.999Z,70.57
2022-10-28T08:31:12.587Z,71.07
2022-10-28T08:32:15.948Z,70.81
2022-10-28T08:33:19.559Z,70.72
2022-10-28T08:34:25.772Z,70.64
2022-10-28T08:35:30.641Z,70.22
2022-10-28T08:36:34.136Z,70.57
2022-10-28T08:37:37.652Z,70.54
2022-10-28T08:38:45.343Z,70.65
2022-10-28T08:39:46.438Z,70.33
2022-10-28T08:40:52.035Z,70.37
2022-10-28T08:41:57.208Z,70.47
2022-10-28T08:43:02.252Z,69.93
2022-10-28T08:44:24.168Z,70.84
2022-10-28T08:45:38.107Z,70.53
2022-10-28T08:46:52.162Z,68.21
2022-10-28T08:48:13.958Z,67.99
2022-10-28T08:49:18.611Z,67.69
2022-10-28T08:50:23.569Z,67.59
2022-10-28T08:51:44.516Z,66.78
2022-10-28T08:52:56.673Z,66.40
2022-10-28T08:54:02.190Z,65.05
2022-10-28T08:55:08.726Z,64.99
2022-10-28T08:56:15.040Z,64.77
2022-10-28T08:57:20.441Z,63.74
2022-10-28T08:58:24.775Z,63.10
2022-10-28T08:59:31.626Z,62.29
2022-10-28T09:00:35.444Z,62.28
2022-10-28T09:01:42.779Z,63.50
2022-10-28T09:03:04.898Z,63.86
2022-10-28T09:04:10.399Z,64.07
2022-10-28T09:05:21.675Z,65.06
2022-10-28T09:06:23.877Z,64.90
2022-10-28T09:07:27.282Z,63.52
2022-10-28T09:08:32.141Z,63.95
2022-10-28T09:09:35.849Z,64.10
2022-10-28T09:10:42.945Z,64.64
2022-10-28T09:11:52.165Z,64.92
2022-10-28T09:12:58.206Z,65.48
2022-10-28T09:14:05.803Z,66.34
2022-10-28T09:15:15.520Z,65.78
2022-10-28T09:16:28.435Z,64.61
2022-10-28T09:17:42.516Z,64.43
2022-10-28T09:18:52.677Z,64.02
2022-10-28T09:20:00.965Z,63.90
2022-10-28T09:21:07.929Z,63.72
2022-10-28T09:22:28.993Z,62.54
2022-10-28T09:23:38.452Z,61.53
2022-10-28T09:24:51.876Z,61.99
2022-10-28T09:26:00.710Z,62.51
2022-10-28T09:27:08.080Z,62.34
2022-10-28T09:28:16.481Z,62.64
2022-10-28T09:29:22.788Z,63.21
2022-10-28T09:30:29.041Z,62.27
2022-10-28T09:31:43.401Z,62.03
2022-10-28T09:32:50.347Z,62.62
2022-10-28T09:34:04.298Z,61.99
2022-10-28T09:35:11.157Z,61.30
2022-10-28T09:36:16.427Z,61.25
2022-10-28T09:37:27.568Z,61.54
2022-10-28T09:38:32.692Z,62.28
2022-10-28T09:39:47.891Z,61.40
2022-10-28T09:40:52.276Z,61.34
2022-10-28T09:41:57.671Z,57.32
2022-10-28T09:43:14.754Z,57.27
2022-10-28T09:44:19.084Z,57.05
2022-10-28T09:45:27.194Z,56.92
2022-10-28T09:46:36.190Z,57.19
2022-10-28T09:47:40.612Z,56.57
2022-10-28T09:48:51.497Z,55.97
2022-10-28T09:49:56.688Z,55.11
2022-10-28T09:51:00.376Z,55.41
2022-10-28T09:52:07.224Z,54.73
2022-10-28T09:53:12.403Z,54.23
2022-10-28T09:54:15.813Z,54.38
2022-10-28T09:55:22.870Z,51.69
2022-10-28T09:56:27.208Z,48.79
2022-10-28T09:57:32.517Z,48.25
2022-10-28T09:58:36.350Z,48.12
2022-10-28T09:59:40.861Z,48.31
2022-10-28T10:00:45.201Z,48.28
2022-10-28T10:01:51.652Z,48.28
2022-10-28T10:02:58.235Z,49.02
2022-10-28T10:04:01.133Z,48.68
2022-10-28T10:05:07.365Z,48.20
2022-10-28T10:06:12.426Z,47.61
2022-10-28T10:07:17.499Z,47.55
2022-10-28T10:08:21.640Z,48.75
2022-10-28T10:09:26.920Z,48.46
2022-10-28T10:10:37.729Z,48.24
2022-10-28T10:11:45.386Z,49.92
2022-10-28T10:12:52.390Z,51.31
2022-10-28T10:13:56.086Z,49.77
2022-10-28T10:14:59.933Z,48.75
2022-10-28T10:16:05.382Z,49.22
2022-10-28T10:17:16.408Z,49.57
2022-10-28T10:18:21.020Z,49.39
2022-10-28T10:19:24.357Z,49.39
2022-10-28T10:20:27.873Z,49.84
2022-10-28T10:21:34.920Z,49.88
2022-10-28T10:22:42.654Z,50.33
2022-10-28T10:23:46.327Z,49.02
2022-10-28T10:24:49.726Z,48.91
2022-10-28T10:27:12.811Z,47.07
2022-10-28T10:28:17.583Z,46.71
2022-10-28T10:29:21.284Z,47.65
2022-10-28T10:30:28.245Z,48.06
2022-10-28T10:31:31.866Z,47.65
2022-10-28T10:32:35.256Z,47.51
2022-10-28T10:33:40.109Z,46.73
2022-10-28T10:34:44.252Z,46.59
2022-10-28T10:35:50.994Z,46.06
2022-10-28T10:36:55.040Z,47.22
2022-10-28T10:38:00.290Z,48.89
2022-10-28T10:39:04.012Z,47.88
2022-10-28T10:40:20.355Z,47.49
2022-10-28T10:41:36.812Z,47.54
2022-10-28T10:42:51.884Z,47.59
2022-10-28T10:43:47.806Z,47.64
2022-10-28T10:44:52.864Z,48.71
2022-10-28T10:46:08.083Z,49.75
2022-10-28T10:47:16.914Z,49.02
2022-10-28T10:48:23.547Z,48.84
2022-10-28T10:49:27.542Z,48.00
2022-10-28T10:51:40.117Z,48.92
2022-10-28T10:52:44.466Z,49.41
2022-10-28T10:53:51.717Z,49.92
2022-10-28T10:54:59.966Z,50.23
2022-10-28T10:56:04.891Z,51.25
2022-10-28T10:57:17.933Z,50.60
2022-10-28T10:58:22.971Z,51.50
2022-10-28T10:59:29.411Z,51.17
2022-10-28T11:00:37.285Z,50.72
2022-10-28T11:01:41.620Z,50.85
2022-10-28T11:02:50.049Z,51.27
2022-10-28T11:05:06.759Z,51.20
2022-10-28T11:06:23.229Z,51.68
2022-10-28T11:07:17.027Z,52.76
2022-10-28T11:08:39.884Z,53.06
2022-10-28T11:09:43.349Z,53.04
2022-10-28T11:10:48.285Z,51.89
2022-10-28T11:11:55.711Z,52.48
2022-10-28T11:13:00.978Z,51.80
2022-10-28T11:14:05.203Z,51.86
2022-10-28T11:15:19.988Z,51.75
2022-10-28T11:16:27.619Z,51.73
2022-10-28T11:18:39.288Z,51.86
2022-10-28T11:19:41.959Z,51.55
2022-10-28T11:20:56.220Z,51.59
2022-10-28T11:22:03.475Z,51.35
2022-10-28T11:23:10.334Z,51.65
2022-10-28T11:24:28.078Z,51.93
2022-10-28T11:25:39.532Z,51.87
2022-10-28T11:26:44.757Z,52.10
2022-10-28T11:27:57.635Z,52.31
2022-10-28T11:30:17.317Z,53.06
2022-10-28T11:31:38.478Z,52.92
2022-10-28T11:32:54.610Z,53.09
2022-10-28T11:33:49.665Z,53.17
2022-10-28T11:35:13.121Z,53.71
2022-10-28T11:36:21.430Z,53.12
2022-10-28T11:37:31.301Z,52.96
2022-10-28T11:38:38.465Z,53.22
2022-10-28T11:39:44.791Z,53.20
2022-10-28T11:41:07.401Z,53.13
2022-10-28T11:42:27.407Z,52.94
2022-10-28T11:43:38.539Z,53.15
2022-10-28T11:44:47.309Z,53.23
2022-10-28T11:45:56.619Z,53.01
2022-10-28T11:47:10.685Z,53.12
2022-10-28T11:48:18.784Z,53.48
2022-10-28T11:49:23.845Z,53.89
2022-10-28T11:50:33.826Z,53.96
2022-10-28T11:51:39.929Z,54.39
2022-10-28T11:52:48.159Z,54.62
2022-10-28T11:53:58.991Z,54.58
2022-10-28T11:55:13.221Z,54.77
2022-10-28T11:56:28.117Z,54.49
2022-10-28T11:57:36.545Z,54.42
2022-10-28T11:59:01.030Z,54.47
2022-10-28T12:00:12.181Z,54.73
2022-10-28T12:01:22.719Z,55.15
2022-10-28T12:02:37.014Z,55.17
2022-10-28T12:03:43.671Z,55.53
2022-10-28T12:05:01.077Z,55.24
2022-10-28T12:06:26.305Z,55.15
2022-10-28T12:07:30.857Z,54.26
2022-10-28T12:08:41.778Z,54.95
2022-10-28T12:09:54.365Z,53.98
2022-10-28T12:11:08.517Z,54.60
2022-10-28T12:12:13.912Z,54.21
2022-10-28T12:13:25.147Z,53.62
2022-10-28T12:14:40.177Z,54.05
2022-10-28T12:15:48.022Z,54.19
2022-10-28T12:16:54.401Z,53.62
2022-10-28T12:17:59.751Z,53.53
2022-10-28T12:19:05.337Z,53.43
2022-10-28T12:20:11.675Z,53.76
2022-10-28T12:21:17.030Z,53.61
2022-10-28T12:22:35.534Z,54.42
2022-10-28T12:23:39.203Z,54.51
2022-10-28T12:24:46.221Z,55.63
2022-10-28T12:25:55.613Z,55.20
2022-10-28T12:27:01.102Z,55.33
2022-10-28T12:28:05.461Z,56.07
2022-10-28T12:29:21.377Z,55.35
2022-10-28T12:30:27.491Z,55.38
2022-10-28T12:31:32.179Z,54.99
2022-10-28T12:32:38.263Z,55.42
2022-10-28T12:33:45.110Z,55.69
2022-10-28T12:34:50.588Z,54.50
2022-10-28T12:35:55.625Z,54.47
2022-10-28T12:37:18.797Z,55.16
2022-10-28T12:38:31.092Z,54.96
2022-10-28T12:39:43.161Z,55.77
2022-10-28T12:40:52.798Z,55.61
2022-10-28T12:42:06.051Z,55.95
2022-10-28T12:43:20.101Z,55.82
2022-10-28T12:44:25.277Z,56.37
2022-10-28T12:45:30.652Z,55.40
2022-10-28T12:46:36.868Z,56.50
2022-10-28T12:47:43.550Z,55.11
2022-10-28T12:48:50.571Z,55.43
2022-10-28T12:50:07.133Z,55.71
2022-10-28T12:51:13.202Z,55.75
2022-10-28T12:52:23.538Z,55.45
2022-10-28T12:53:45.019Z,54.21
2022-10-28T12:54:53.626Z,54.37
2022-10-28T12:56:02.538Z,54.39
2022-10-28T12:57:08.685Z,54.36
2022-10-28T12:58:20.217Z,54.37
2022-10-28T12:59:25.419Z,56.01
2022-10-28T13:00:31.726Z,55.91
2022-10-28T13:01:37.798Z,56.07
2022-10-28T13:02:46.168Z,55.54
2022-10-28T13:03:50.718Z,55.68
2022-10-28T13:04:55.295Z,55.17
2022-10-28T13:06:16.744Z,55.45
2022-10-28T13:07:24.030Z,55.32
2022-10-28T13:08:37.987Z,56.34
2022-10-28T13:09:48.455Z,56.29
2022-10-28T13:10:59.576Z,56.21
2022-10-28T13:12:06.631Z,56.26
2022-10-28T13:13:13.536Z,57.17
2022-10-28T13:14:34.530Z,56.33
2022-10-28T13:15:39.013Z,56.41
2022-10-28T13:17:04.321Z,56.19
2022-10-28T13:18:09.605Z,56.48
2022-10-28T13:19:19.485Z,56.73
2022-10-28T13:20:31.372Z,56.24
2022-10-28T13:21:46.365Z,56.16
2022-10-28T13:22:54.503Z,56.22
2022-10-28T13:24:07.815Z,56.79
2022-10-28T13:25:32.878Z,57.03
2022-10-28T13:26:38.123Z,57.29
2022-10-28T13:27:45.150Z,58.52
2022-10-28T13:28:49.394Z,57.80
2022-10-28T13:29:55.497Z,57.48
2022-10-28T13:31:02.100Z,57.35
2022-10-28T13:32:05.390Z,57.37
2022-10-28T13:33:11.441Z,57.53
2022-10-28T13:34:17.950Z,57.97
2022-10-28T13:35:23.262Z,57.61
2022-10-28T13:36:28.099Z,57.65
2022-10-28T13:37:34.718Z,57.45
2022-10-28T13:38:37.702Z,57.56
2022-10-28T13:39:42.772Z,58.48
2022-10-28T13:40:48.187Z,57.04
2022-10-28T13:41:54.317Z,57.53
2022-10-28T13:42:59.145Z,57.60
2022-10-28T13:44:09.860Z,57.87
2022-10-28T13:45:31.747Z,58.75
2022-10-28T13:46:54.540Z,59.01
2022-10-28T13:48:16.565Z,58.99
2022-10-28T13:49:21.848Z,58.72
2022-10-28T13:50:36.622Z,58.93
2022-10-28T13:51:46.196Z,59.17
2022-10-28T13:52:51.562Z,59.36
2022-10-28T13:53:57.375Z,60.17
2022-10-28T13:55:01.818Z,59.74
2022-10-28T13:56:19.898Z,59.88
2022-10-28T13:57:32.109Z,60.35
2022-10-28T13:58:37.077Z,60.15
2022-10-28T13:59:44.884Z,60.18
2022-10-28T14:00:52.077Z,60.51
2022-10-28T14:02:07.587Z,60.44
2022-10-28T14:03:21.207Z,60.62
2022-10-28T14:04:29.508Z,61.04
2022-10-28T14:05:34.673Z,61.63
2022-10-28T14:06:38.221Z,61.91
2022-10-28T14:07:43.678Z,63.33
2022-10-28T14:08:54.526Z,63.13
2022-10-28T14:09:59.660Z,62.89
2022-10-28T14:11:10.590Z,63.01
2022-10-28T14:12:22.337Z,63.12
2022-10-28T14:13:26.479Z,62.79
2022-10-28T14:14:30.432Z,63.29
2022-10-28T14:15:38.400Z,63.54
2022-10-28T14:16:43.578Z,63.22
2022-10-28T14:17:51.200Z,63.38
2022-10-28T14:18:56.738Z,63.35
2022-10-28T14:19:59.834Z,63.52
2022-10-28T14:21:03.455Z,63.67
2022-10-28T14:22:08.261Z,63.72
2022-10-28T14:23:22.304Z,63.49
2022-10-28T14:24:33.181Z,64.32
2022-10-28T14:25:48.684Z,64.30